sensor_id;sensor_type;location;lat;lon;timestamp;P1;durP1;ratioP1;P2;durP2;ratioP2
51614;SDS011;37695;52.960;6.188;2023-05-07T00:00:33;8.20;;;6.82;;
51614;SDS011;37695;52.960;6.188;2023-05-07T00:02:59;7.82;;;6.63;;
51614;SDS011;37695;52.960;6.188;2023-05-07T00:05:25;8.20;;;6.85;;
51614;SDS011;37695;52.960;6.188;2023-05-07T00:07:51;8.73;;;6.07;;
51614;SDS011;37695;52.960;6.188;2023-05-07T00:10:17;10.65;;;6.07;;
51614;SDS011;37695;52.960;6.188;2023-05-07T00:12:44;9.02;;;6.50;;
51614;SDS011;37695;52.960;6.188;2023-05-07T00:15:09;8.70;;;6.45;;
51614;SDS011;37695;52.960;6.188;2023-05-07T00:17:35;8.80;;;6.90;;
51614;SDS011;37695;52.960;6.188;2023-05-07T00:20:01;10.57;;;6.85;;
51614;SDS011;37695;52.960;6.188;2023-05-07T00:22:28;7.93;;;6.75;;
51614;SDS011;37695;52.960;6.188;2023-05-07T00:24:55;7.32;;;6.45;;
51614;SDS011;37695;52.960;6.188;2023-05-07T00:27:21;8.95;;;7.10;;
51614;SDS011;37695;52.960;6.188;2023-05-07T00:29:47;8.18;;;6.78;;
51614;SDS011;37695;52.960;6.188;2023-05-07T00:32:12;9.25;;;6.57;;
51614;SDS011;37695;52.960;6.188;2023-05-07T00:34:38;8.02;;;6.70;;
51614;SDS011;37695;52.960;6.188;2023-05-07T00:37:04;8.75;;;7.28;;
51614;SDS011;37695;52.960;6.188;2023-05-07T00:39:32;14.60;;;7.05;;
51614;SDS011;37695;52.960;6.188;2023-05-07T00:41:58;11.25;;;6.47;;
51614;SDS011;37695;52.960;6.188;2023-05-07T00:44:23;10.00;;;7.03;;
51614;SDS011;37695;52.960;6.188;2023-05-07T00:46:50;8.05;;;6.13;;
51614;SDS011;37695;52.960;6.188;2023-05-07T00:49:15;8.38;;;6.70;;
51614;SDS011;37695;52.960;6.188;2023-05-07T00:51:41;8.32;;;6.53;;
51614;SDS011;37695;52.960;6.188;2023-05-07T00:54:07;10.82;;;6.47;;
51614;SDS011;37695;52.960;6.188;2023-05-07T00:56:33;9.15;;;6.60;;
51614;SDS011;37695;52.960;6.188;2023-05-07T00:59:00;10.00;;;7.00;;
51614;SDS011;37695;52.960;6.188;2023-05-07T01:01:26;8.73;;;6.80;;
51614;SDS011;37695;52.960;6.188;2023-05-07T01:03:52;9.02;;;6.90;;
51614;SDS011;37695;52.960;6.188;2023-05-07T01:06:18;10.10;;;6.13;;
51614;SDS011;37695;52.960;6.188;2023-05-07T01:08:46;8.98;;;6.40;;
51614;SDS011;37695;52.960;6.188;2023-05-07T01:11:12;8.00;;;6.50;;
51614;SDS011;37695;52.960;6.188;2023-05-07T01:13:39;8.07;;;6.15;;
51614;SDS011;37695;52.960;6.188;2023-05-07T01:16:05;10.13;;;6.60;;
51614;SDS011;37695;52.960;6.188;2023-05-07T01:18:31;9.63;;;7.18;;
51614;SDS011;37695;52.960;6.188;2023-05-07T01:20:58;7.90;;;6.57;;
51614;SDS011;37695;52.960;6.188;2023-05-07T01:23:24;8.07;;;6.55;;
51614;SDS011;37695;52.960;6.188;2023-05-07T01:25:52;9.82;;;7.22;;
51614;SDS011;37695;52.960;6.188;2023-05-07T01:28:18;9.95;;;7.18;;
51614;SDS011;37695;52.960;6.188;2023-05-07T01:30:45;8.48;;;6.50;;
51614;SDS011;37695;52.960;6.188;2023-05-07T01:33:15;10.30;;;6.97;;
51614;SDS011;37695;52.960;6.188;2023-05-07T01:35:47;9.57;;;7.13;;
51614;SDS011;37695;52.960;6.188;2023-05-07T01:38:15;9.43;;;7.75;;
51614;SDS011;37695;52.960;6.188;2023-05-07T01:40:41;11.55;;;8.20;;
51614;SDS011;37695;52.960;6.188;2023-05-07T01:43:07;10.55;;;7.82;;
51614;SDS011;37695;52.960;6.188;2023-05-07T01:45:34;11.57;;;8.30;;
51614;SDS011;37695;52.960;6.188;2023-05-07T01:48:01;10.27;;;8.60;;
51614;SDS011;37695;52.960;6.188;2023-05-07T01:50:27;12.80;;;9.73;;
51614;SDS011;37695;52.960;6.188;2023-05-07T01:52:52;12.25;;;9.40;;
51614;SDS011;37695;52.960;6.188;2023-05-07T01:55:18;11.55;;;10.10;;
51614;SDS011;37695;52.960;6.188;2023-05-07T01:57:44;14.13;;;11.13;;
51614;SDS011;37695;52.960;6.188;2023-05-07T02:00:09;12.40;;;10.32;;
51614;SDS011;37695;52.960;6.188;2023-05-07T02:02:35;13.07;;;10.85;;
51614;SDS011;37695;52.960;6.188;2023-05-07T02:05:01;13.70;;;11.32;;
51614;SDS011;37695;52.960;6.188;2023-05-07T02:07:27;17.70;;;11.90;;
51614;SDS011;37695;52.960;6.188;2023-05-07T02:09:53;13.90;;;10.85;;
51614;SDS011;37695;52.960;6.188;2023-05-07T02:12:20;16.20;;;12.70;;
51614;SDS011;37695;52.960;6.188;2023-05-07T02:14:46;14.55;;;11.88;;
51614;SDS011;37695;52.960;6.188;2023-05-07T02:17:11;13.90;;;12.10;;
51614;SDS011;37695;52.960;6.188;2023-05-07T02:19:37;15.05;;;11.13;;
51614;SDS011;37695;52.960;6.188;2023-05-07T02:22:03;15.95;;;11.75;;
51614;SDS011;37695;52.960;6.188;2023-05-07T02:24:28;14.45;;;11.25;;
51614;SDS011;37695;52.960;6.188;2023-05-07T02:26:54;14.68;;;10.70;;
51614;SDS011;37695;52.960;6.188;2023-05-07T02:29:19;13.55;;;11.20;;
51614;SDS011;37695;52.960;6.188;2023-05-07T02:31:45;13.90;;;11.75;;
51614;SDS011;37695;52.960;6.188;2023-05-07T02:34:10;14.52;;;11.80;;
51614;SDS011;37695;52.960;6.188;2023-05-07T02:36:36;17.05;;;11.77;;
51614;SDS011;37695;52.960;6.188;2023-05-07T02:39:01;16.05;;;11.07;;
51614;SDS011;37695;52.960;6.188;2023-05-07T02:41:27;14.07;;;11.18;;
51614;SDS011;37695;52.960;6.188;2023-05-07T02:43:53;14.93;;;12.00;;
51614;SDS011;37695;52.960;6.188;2023-05-07T02:46:18;13.13;;;10.45;;
51614;SDS011;37695;52.960;6.188;2023-05-07T02:48:44;12.25;;;10.68;;
51614;SDS011;37695;52.960;6.188;2023-05-07T02:51:09;13.07;;;9.95;;
51614;SDS011;37695;52.960;6.188;2023-05-07T02:53:35;13.23;;;11.32;;
51614;SDS011;37695;52.960;6.188;2023-05-07T02:56:01;13.63;;;11.30;;
51614;SDS011;37695;52.960;6.188;2023-05-07T02:58:27;14.35;;;10.77;;
51614;SDS011;37695;52.960;6.188;2023-05-07T03:00:53;14.15;;;10.95;;
51614;SDS011;37695;52.960;6.188;2023-05-07T03:03:19;13.43;;;10.68;;
51614;SDS011;37695;52.960;6.188;2023-05-07T03:05:45;16.85;;;12.85;;
51614;SDS011;37695;52.960;6.188;2023-05-07T03:08:11;15.82;;;12.20;;
51614;SDS011;37695;52.960;6.188;2023-05-07T03:10:37;15.10;;;11.15;;
51614;SDS011;37695;52.960;6.188;2023-05-07T03:13:02;16.65;;;13.18;;
51614;SDS011;37695;52.960;6.188;2023-05-07T03:15:28;14.88;;;12.05;;
51614;SDS011;37695;52.960;6.188;2023-05-07T03:17:54;14.98;;;12.00;;
51614;SDS011;37695;52.960;6.188;2023-05-07T03:20:20;14.65;;;12.75;;
51614;SDS011;37695;52.960;6.188;2023-05-07T03:22:47;15.38;;;12.15;;
51614;SDS011;37695;52.960;6.188;2023-05-07T03:25:12;19.08;;;13.00;;
51614;SDS011;37695;52.960;6.188;2023-05-07T03:27:39;15.57;;;12.63;;
51614;SDS011;37695;52.960;6.188;2023-05-07T03:30:06;15.30;;;11.55;;
51614;SDS011;37695;52.960;6.188;2023-05-07T03:32:33;14.98;;;11.73;;
51614;SDS011;37695;52.960;6.188;2023-05-07T03:35:00;14.35;;;11.63;;
51614;SDS011;37695;52.960;6.188;2023-05-07T03:37:25;14.93;;;12.27;;
51614;SDS011;37695;52.960;6.188;2023-05-07T03:39:51;13.52;;;11.32;;
51614;SDS011;37695;52.960;6.188;2023-05-07T03:42:16;12.93;;;10.25;;
51614;SDS011;37695;52.960;6.188;2023-05-07T03:44:42;11.35;;;9.20;;
51614;SDS011;37695;52.960;6.188;2023-05-07T03:47:08;12.25;;;9.73;;
51614;SDS011;37695;52.960;6.188;2023-05-07T03:49:35;10.77;;;9.23;;
51614;SDS011;37695;52.960;6.188;2023-05-07T03:52:00;11.50;;;9.32;;
51614;SDS011;37695;52.960;6.188;2023-05-07T03:54:26;11.40;;;9.10;;
51614;SDS011;37695;52.960;6.188;2023-05-07T03:56:51;12.10;;;8.35;;
51614;SDS011;37695;52.960;6.188;2023-05-07T03:59:17;12.73;;;8.55;;
51614;SDS011;37695;52.960;6.188;2023-05-07T04:01:42;14.73;;;8.48;;
51614;SDS011;37695;52.960;6.188;2023-05-07T04:04:08;11.15;;;8.43;;
51614;SDS011;37695;52.960;6.188;2023-05-07T04:06:33;12.63;;;8.57;;
51614;SDS011;37695;52.960;6.188;2023-05-07T04:08:59;11.38;;;8.38;;
51614;SDS011;37695;52.960;6.188;2023-05-07T04:11:25;12.27;;;10.18;;
51614;SDS011;37695;52.960;6.188;2023-05-07T04:13:50;13.40;;;9.70;;
51614;SDS011;37695;52.960;6.188;2023-05-07T04:16:16;11.95;;;9.10;;
51614;SDS011;37695;52.960;6.188;2023-05-07T04:18:41;13.52;;;11.70;;
51614;SDS011;37695;52.960;6.188;2023-05-07T04:21:14;13.43;;;9.75;;
51614;SDS011;37695;52.960;6.188;2023-05-07T04:23:40;11.38;;;8.50;;
51614;SDS011;37695;52.960;6.188;2023-05-07T04:26:06;12.90;;;9.30;;
51614;SDS011;37695;52.960;6.188;2023-05-07T04:28:31;12.50;;;9.93;;
51614;SDS011;37695;52.960;6.188;2023-05-07T04:30:57;13.82;;;10.73;;
51614;SDS011;37695;52.960;6.188;2023-05-07T04:33:23;15.38;;;12.20;;
51614;SDS011;37695;52.960;6.188;2023-05-07T04:35:48;14.00;;;11.13;;
51614;SDS011;37695;52.960;6.188;2023-05-07T04:38:14;13.15;;;10.10;;
51614;SDS011;37695;52.960;6.188;2023-05-07T04:40:39;14.50;;;9.77;;
51614;SDS011;37695;52.960;6.188;2023-05-07T04:43:06;16.23;;;13.02;;
51614;SDS011;37695;52.960;6.188;2023-05-07T04:45:32;14.88;;;10.93;;
51614;SDS011;37695;52.960;6.188;2023-05-07T04:47:58;15.95;;;11.30;;
51614;SDS011;37695;52.960;6.188;2023-05-07T04:50:23;15.23;;;11.82;;
51614;SDS011;37695;52.960;6.188;2023-05-07T04:52:49;13.75;;;10.68;;
51614;SDS011;37695;52.960;6.188;2023-05-07T04:55:15;13.60;;;11.68;;
51614;SDS011;37695;52.960;6.188;2023-05-07T04:57:41;15.70;;;10.25;;
51614;SDS011;37695;52.960;6.188;2023-05-07T05:00:06;15.40;;;11.85;;
51614;SDS011;37695;52.960;6.188;2023-05-07T05:02:36;15.50;;;11.38;;
51614;SDS011;37695;52.960;6.188;2023-05-07T05:05:02;14.50;;;11.88;;
51614;SDS011;37695;52.960;6.188;2023-05-07T05:07:27;16.35;;;12.25;;
51614;SDS011;37695;52.960;6.188;2023-05-07T05:09:53;14.77;;;11.25;;
51614;SDS011;37695;52.960;6.188;2023-05-07T05:12:19;14.32;;;11.13;;
51614;SDS011;37695;52.960;6.188;2023-05-07T05:14:45;14.90;;;11.32;;
51614;SDS011;37695;52.960;6.188;2023-05-07T05:17:10;17.25;;;12.55;;
51614;SDS011;37695;52.960;6.188;2023-05-07T05:19:36;14.80;;;12.10;;
51614;SDS011;37695;52.960;6.188;2023-05-07T05:22:01;15.38;;;11.63;;
51614;SDS011;37695;52.960;6.188;2023-05-07T05:24:28;14.60;;;11.07;;
51614;SDS011;37695;52.960;6.188;2023-05-07T05:26:55;15.15;;;11.13;;
51614;SDS011;37695;52.960;6.188;2023-05-07T05:29:20;16.27;;;10.63;;
51614;SDS011;37695;52.960;6.188;2023-05-07T05:31:46;14.30;;;10.45;;
51614;SDS011;37695;52.960;6.188;2023-05-07T05:34:11;14.32;;;11.20;;
51614;SDS011;37695;52.960;6.188;2023-05-07T05:36:37;12.60;;;10.35;;
51614;SDS011;37695;52.960;6.188;2023-05-07T05:39:03;12.50;;;9.63;;
51614;SDS011;37695;52.960;6.188;2023-05-07T05:41:29;12.15;;;9.70;;
51614;SDS011;37695;52.960;6.188;2023-05-07T05:43:54;14.23;;;10.25;;
51614;SDS011;37695;52.960;6.188;2023-05-07T05:46:20;13.55;;;10.60;;
51614;SDS011;37695;52.960;6.188;2023-05-07T05:48:45;12.60;;;9.73;;
51614;SDS011;37695;52.960;6.188;2023-05-07T05:51:11;14.13;;;11.73;;
51614;SDS011;37695;52.960;6.188;2023-05-07T05:53:36;13.32;;;9.82;;
51614;SDS011;37695;52.960;6.188;2023-05-07T05:56:02;13.00;;;10.25;;
51614;SDS011;37695;52.960;6.188;2023-05-07T05:58:27;12.80;;;10.20;;
51614;SDS011;37695;52.960;6.188;2023-05-07T06:00:53;12.57;;;9.50;;
51614;SDS011;37695;52.960;6.188;2023-05-07T06:03:19;13.40;;;9.70;;
51614;SDS011;37695;52.960;6.188;2023-05-07T06:05:45;15.63;;;10.90;;
51614;SDS011;37695;52.960;6.188;2023-05-07T06:08:10;12.52;;;10.57;;
51614;SDS011;37695;52.960;6.188;2023-05-07T06:10:36;10.85;;;9.02;;
51614;SDS011;37695;52.960;6.188;2023-05-07T06:13:02;11.95;;;8.88;;
51614;SDS011;37695;52.960;6.188;2023-05-07T06:15:28;12.02;;;9.48;;
51614;SDS011;37695;52.960;6.188;2023-05-07T06:17:53;13.50;;;9.30;;
51614;SDS011;37695;52.960;6.188;2023-05-07T06:20:20;11.18;;;8.05;;
51614;SDS011;37695;52.960;6.188;2023-05-07T06:22:46;12.77;;;9.38;;
51614;SDS011;37695;52.960;6.188;2023-05-07T06:25:11;11.10;;;8.40;;
51614;SDS011;37695;52.960;6.188;2023-05-07T06:27:37;10.57;;;8.88;;
51614;SDS011;37695;52.960;6.188;2023-05-07T06:30:04;12.10;;;8.75;;
51614;SDS011;37695;52.960;6.188;2023-05-07T06:32:31;11.35;;;9.27;;
51614;SDS011;37695;52.960;6.188;2023-05-07T06:34:56;10.95;;;8.27;;
51614;SDS011;37695;52.960;6.188;2023-05-07T06:37:22;11.80;;;9.43;;
51614;SDS011;37695;52.960;6.188;2023-05-07T06:39:47;11.63;;;9.15;;
51614;SDS011;37695;52.960;6.188;2023-05-07T06:42:13;11.73;;;9.10;;
51614;SDS011;37695;52.960;6.188;2023-05-07T06:44:39;13.55;;;9.52;;
51614;SDS011;37695;52.960;6.188;2023-05-07T06:47:04;13.07;;;10.75;;
51614;SDS011;37695;52.960;6.188;2023-05-07T06:49:30;12.43;;;9.57;;
51614;SDS011;37695;52.960;6.188;2023-05-07T06:51:56;11.90;;;9.45;;
51614;SDS011;37695;52.960;6.188;2023-05-07T06:54:22;11.05;;;9.57;;
51614;SDS011;37695;52.960;6.188;2023-05-07T06:56:48;12.60;;;10.85;;
51614;SDS011;37695;52.960;6.188;2023-05-07T06:59:13;12.90;;;10.02;;
51614;SDS011;37695;52.960;6.188;2023-05-07T07:01:39;12.25;;;9.35;;
51614;SDS011;37695;52.960;6.188;2023-05-07T07:04:05;13.52;;;10.80;;
51614;SDS011;37695;52.960;6.188;2023-05-07T07:06:30;11.85;;;8.95;;
51614;SDS011;37695;52.960;6.188;2023-05-07T07:08:57;13.75;;;10.68;;
51614;SDS011;37695;52.960;6.188;2023-05-07T07:11:23;13.02;;;10.57;;
51614;SDS011;37695;52.960;6.188;2023-05-07T07:13:48;13.00;;;9.88;;
51614;SDS011;37695;52.960;6.188;2023-05-07T07:16:15;12.82;;;10.48;;
51614;SDS011;37695;52.960;6.188;2023-05-07T07:18:41;10.75;;;9.38;;
51614;SDS011;37695;52.960;6.188;2023-05-07T07:21:06;11.27;;;8.90;;
51614;SDS011;37695;52.960;6.188;2023-05-07T07:23:32;12.05;;;10.35;;
51614;SDS011;37695;52.960;6.188;2023-05-07T07:25:57;11.77;;;10.50;;
51614;SDS011;37695;52.960;6.188;2023-05-07T07:28:23;12.68;;;10.27;;
51614;SDS011;37695;52.960;6.188;2023-05-07T07:30:49;11.25;;;9.00;;
51614;SDS011;37695;52.960;6.188;2023-05-07T07:33:14;13.30;;;11.10;;
51614;SDS011;37695;52.960;6.188;2023-05-07T07:35:40;12.43;;;10.75;;
51614;SDS011;37695;52.960;6.188;2023-05-07T07:38:05;13.27;;;11.07;;
51614;SDS011;37695;52.960;6.188;2023-05-07T07:40:31;13.52;;;11.73;;
51614;SDS011;37695;52.960;6.188;2023-05-07T07:42:59;13.50;;;10.98;;
51614;SDS011;37695;52.960;6.188;2023-05-07T07:45:26;13.23;;;11.63;;
51614;SDS011;37695;52.960;6.188;2023-05-07T07:47:51;14.07;;;11.65;;
51614;SDS011;37695;52.960;6.188;2023-05-07T07:50:17;13.27;;;10.98;;
51614;SDS011;37695;52.960;6.188;2023-05-07T07:52:43;12.82;;;11.55;;
51614;SDS011;37695;52.960;6.188;2023-05-07T07:55:09;13.00;;;11.70;;
51614;SDS011;37695;52.960;6.188;2023-05-07T07:57:34;14.43;;;12.35;;
51614;SDS011;37695;52.960;6.188;2023-05-07T08:00:00;12.57;;;10.77;;
51614;SDS011;37695;52.960;6.188;2023-05-07T08:02:26;14.02;;;12.52;;
51614;SDS011;37695;52.960;6.188;2023-05-07T08:04:51;13.68;;;12.27;;
51614;SDS011;37695;52.960;6.188;2023-05-07T08:07:17;12.68;;;11.27;;
51614;SDS011;37695;52.960;6.188;2023-05-07T08:09:45;12.45;;;11.15;;
51614;SDS011;37695;52.960;6.188;2023-05-07T08:12:11;12.80;;;10.85;;
51614;SDS011;37695;52.960;6.188;2023-05-07T08:14:36;12.35;;;11.00;;
51614;SDS011;37695;52.960;6.188;2023-05-07T08:17:02;13.90;;;12.15;;
51614;SDS011;37695;52.960;6.188;2023-05-07T08:19:28;14.57;;;13.02;;
51614;SDS011;37695;52.960;6.188;2023-05-07T08:21:53;14.18;;;12.30;;
51614;SDS011;37695;52.960;6.188;2023-05-07T08:24:20;13.82;;;12.25;;
51614;SDS011;37695;52.960;6.188;2023-05-07T08:26:45;13.55;;;12.15;;
51614;SDS011;37695;52.960;6.188;2023-05-07T08:29:11;14.32;;;12.68;;
51614;SDS011;37695;52.960;6.188;2023-05-07T08:31:36;14.20;;;11.82;;
51614;SDS011;37695;52.960;6.188;2023-05-07T08:34:04;14.27;;;11.73;;
51614;SDS011;37695;52.960;6.188;2023-05-07T08:36:30;14.77;;;12.95;;
51614;SDS011;37695;52.960;6.188;2023-05-07T08:38:55;14.23;;;12.73;;
51614;SDS011;37695;52.960;6.188;2023-05-07T08:41:21;13.77;;;12.43;;
51614;SDS011;37695;52.960;6.188;2023-05-07T08:43:49;16.75;;;13.13;;
51614;SDS011;37695;52.960;6.188;2023-05-07T08:46:16;14.55;;;13.07;;
51614;SDS011;37695;52.960;6.188;2023-05-07T08:48:44;14.40;;;12.88;;
51614;SDS011;37695;52.960;6.188;2023-05-07T08:51:13;13.73;;;12.32;;
51614;SDS011;37695;52.960;6.188;2023-05-07T08:53:40;15.63;;;13.20;;
51614;SDS011;37695;52.960;6.188;2023-05-07T08:56:07;13.90;;;12.40;;
51614;SDS011;37695;52.960;6.188;2023-05-07T08:58:33;14.55;;;13.05;;
51614;SDS011;37695;52.960;6.188;2023-05-07T09:01:00;15.05;;;13.45;;
51614;SDS011;37695;52.960;6.188;2023-05-07T09:03:31;15.02;;;13.25;;
51614;SDS011;37695;52.960;6.188;2023-05-07T09:05:57;14.77;;;13.15;;
51614;SDS011;37695;52.960;6.188;2023-05-07T09:08:26;13.30;;;11.90;;
51614;SDS011;37695;52.960;6.188;2023-05-07T09:10:52;14.10;;;12.60;;
51614;SDS011;37695;52.960;6.188;2023-05-07T09:13:18;14.93;;;13.43;;
51614;SDS011;37695;52.960;6.188;2023-05-07T09:15:44;15.05;;;13.45;;
51614;SDS011;37695;52.960;6.188;2023-05-07T09:18:10;14.63;;;12.98;;
51614;SDS011;37695;52.960;6.188;2023-05-07T09:20:37;13.57;;;12.15;;
51614;SDS011;37695;52.960;6.188;2023-05-07T09:23:03;16.15;;;14.45;;
51614;SDS011;37695;52.960;6.188;2023-05-07T09:25:29;14.55;;;12.82;;
51614;SDS011;37695;52.960;6.188;2023-05-07T09:27:56;14.40;;;12.90;;
51614;SDS011;37695;52.960;6.188;2023-05-07T09:30:22;14.20;;;12.70;;
51614;SDS011;37695;52.960;6.188;2023-05-07T09:32:47;13.75;;;12.23;;
51614;SDS011;37695;52.960;6.188;2023-05-07T09:35:16;13.68;;;12.00;;
51614;SDS011;37695;52.960;6.188;2023-05-07T09:37:42;14.18;;;12.68;;
51614;SDS011;37695;52.960;6.188;2023-05-07T09:40:09;14.27;;;12.77;;
51614;SDS011;37695;52.960;6.188;2023-05-07T09:42:49;14.80;;;12.32;;
51614;SDS011;37695;52.960;6.188;2023-05-07T09:45:48;14.50;;;12.73;;
51614;SDS011;37695;52.960;6.188;2023-05-07T09:48:07;14.40;;;12.88;;
51614;SDS011;37695;52.960;6.188;2023-05-07T09:50:35;14.25;;;12.75;;
51614;SDS011;37695;52.960;6.188;2023-05-07T09:53:03;13.65;;;12.23;;
51614;SDS011;37695;52.960;6.188;2023-05-07T09:55:29;15.48;;;13.80;;
51614;SDS011;37695;52.960;6.188;2023-05-07T09:57:56;16.60;;;13.20;;
51614;SDS011;37695;52.960;6.188;2023-05-07T10:00:23;13.82;;;12.43;;
51614;SDS011;37695;52.960;6.188;2023-05-07T10:02:53;13.77;;;12.15;;
51614;SDS011;37695;52.960;6.188;2023-05-07T10:05:22;14.23;;;12.70;;
51614;SDS011;37695;52.960;6.188;2023-05-07T10:07:47;14.57;;;13.07;;
51614;SDS011;37695;52.960;6.188;2023-05-07T10:10:14;14.90;;;12.52;;
51614;SDS011;37695;52.960;6.188;2023-05-07T10:12:43;13.68;;;12.23;;
51614;SDS011;37695;52.960;6.188;2023-05-07T10:15:09;13.82;;;12.35;;
51614;SDS011;37695;52.960;6.188;2023-05-07T10:17:36;14.00;;;12.60;;
51614;SDS011;37695;52.960;6.188;2023-05-07T10:20:03;15.38;;;13.25;;
51614;SDS011;37695;52.960;6.188;2023-05-07T10:22:34;13.85;;;12.43;;
51614;SDS011;37695;52.960;6.188;2023-05-07T10:25:14;13.25;;;11.88;;
51614;SDS011;37695;52.960;6.188;2023-05-07T10:27:46;13.85;;;12.45;;
51614;SDS011;37695;52.960;6.188;2023-05-07T10:30:23;12.82;;;11.45;;
51614;SDS011;37695;52.960;6.188;2023-05-07T10:32:56;15.85;;;13.55;;
51614;SDS011;37695;52.960;6.188;2023-05-07T10:35:31;14.90;;;12.55;;
51614;SDS011;37695;52.960;6.188;2023-05-07T10:38:00;13.75;;;12.18;;
51614;SDS011;37695;52.960;6.188;2023-05-07T10:40:27;14.40;;;12.90;;
51614;SDS011;37695;52.960;6.188;2023-05-07T10:42:53;14.20;;;12.77;;
51614;SDS011;37695;52.960;6.188;2023-05-07T10:45:20;13.93;;;12.15;;
51614;SDS011;37695;52.960;6.188;2023-05-07T10:50:37;14.48;;;11.65;;
51614;SDS011;37695;52.960;6.188;2023-05-07T10:55:46;13.52;;;11.98;;
51614;SDS011;37695;52.960;6.188;2023-05-07T10:58:23;13.60;;;11.48;;
51614;SDS011;37695;52.960;6.188;2023-05-07T11:00:59;12.02;;;10.80;;
51614;SDS011;37695;52.960;6.188;2023-05-07T11:03:26;12.77;;;11.43;;
51614;SDS011;37695;52.960;6.188;2023-05-07T11:11:42;12.38;;;11.07;;
51614;SDS011;37695;52.960;6.188;2023-05-07T11:14:08;12.52;;;11.23;;
51614;SDS011;37695;52.960;6.188;2023-05-07T11:16:34;11.65;;;10.45;;
51614;SDS011;37695;52.960;6.188;2023-05-07T11:19:01;12.90;;;11.60;;
51614;SDS011;37695;52.960;6.188;2023-05-07T11:21:34;12.88;;;11.52;;
51614;SDS011;37695;52.960;6.188;2023-05-07T11:24:01;12.15;;;10.68;;
51614;SDS011;37695;52.960;6.188;2023-05-07T11:26:40;13.93;;;11.38;;
51614;SDS011;37695;52.960;6.188;2023-05-07T11:29:19;11.65;;;10.40;;
51614;SDS011;37695;52.960;6.188;2023-05-07T11:31:49;12.02;;;10.75;;
51614;SDS011;37695;52.960;6.188;2023-05-07T11:34:20;12.25;;;10.05;;
51614;SDS011;37695;52.960;6.188;2023-05-07T11:36:50;11.05;;;9.93;;
51614;SDS011;37695;52.960;6.188;2023-05-07T11:39:27;11.52;;;10.10;;
51614;SDS011;37695;52.960;6.188;2023-05-07T11:41:54;11.10;;;9.98;;
51614;SDS011;37695;52.960;6.188;2023-05-07T11:44:20;10.60;;;9.50;;
51614;SDS011;37695;52.960;6.188;2023-05-07T11:46:46;10.90;;;9.80;;
51614;SDS011;37695;52.960;6.188;2023-05-07T11:49:11;12.23;;;10.20;;
51614;SDS011;37695;52.960;6.188;2023-05-07T11:51:37;11.20;;;10.00;;
51614;SDS011;37695;52.960;6.188;2023-05-07T11:54:04;10.48;;;9.35;;
51614;SDS011;37695;52.960;6.188;2023-05-07T11:56:34;11.10;;;9.73;;
51614;SDS011;37695;52.960;6.188;2023-05-07T11:59:00;9.93;;;8.93;;
51614;SDS011;37695;52.960;6.188;2023-05-07T12:01:26;9.65;;;8.57;;
51614;SDS011;37695;52.960;6.188;2023-05-07T12:03:51;10.27;;;9.15;;
51614;SDS011;37695;52.960;6.188;2023-05-07T12:06:17;9.05;;;7.95;;
51614;SDS011;37695;52.960;6.188;2023-05-07T12:08:43;9.57;;;8.35;;
51614;SDS011;37695;52.960;6.188;2023-05-07T12:11:13;9.07;;;7.68;;
51614;SDS011;37695;52.960;6.188;2023-05-07T12:13:41;9.48;;;8.43;;
51614;SDS011;37695;52.960;6.188;2023-05-07T12:16:07;9.52;;;8.25;;
51614;SDS011;37695;52.960;6.188;2023-05-07T12:18:33;9.85;;;8.77;;
51614;SDS011;37695;52.960;6.188;2023-05-07T12:21:00;9.45;;;8.13;;
51614;SDS011;37695;52.960;6.188;2023-05-07T12:23:26;9.95;;;7.72;;
51614;SDS011;37695;52.960;6.188;2023-05-07T12:25:52;9.77;;;8.75;;
51614;SDS011;37695;52.960;6.188;2023-05-07T12:28:18;10.50;;;9.10;;
51614;SDS011;37695;52.960;6.188;2023-05-07T12:30:46;10.10;;;8.32;;
51614;SDS011;37695;52.960;6.188;2023-05-07T12:33:16;10.35;;;9.02;;
51614;SDS011;37695;52.960;6.188;2023-05-07T12:35:48;11.18;;;8.20;;
51614;SDS011;37695;52.960;6.188;2023-05-07T12:38:16;8.57;;;7.63;;
51614;SDS011;37695;52.960;6.188;2023-05-07T12:40:46;10.35;;;8.50;;
51614;SDS011;37695;52.960;6.188;2023-05-07T12:43:24;10.23;;;9.20;;
51614;SDS011;37695;52.960;6.188;2023-05-07T12:45:51;8.38;;;7.47;;
51614;SDS011;37695;52.960;6.188;2023-05-07T12:48:19;9.60;;;8.13;;
51614;SDS011;37695;52.960;6.188;2023-05-07T12:50:45;9.02;;;7.97;;
51614;SDS011;37695;52.960;6.188;2023-05-07T12:53:13;8.60;;;7.68;;
51614;SDS011;37695;52.960;6.188;2023-05-07T12:55:44;9.23;;;8.18;;
51614;SDS011;37695;52.960;6.188;2023-05-07T12:58:16;9.65;;;8.05;;
51614;SDS011;37695;52.960;6.188;2023-05-07T13:00:47;8.77;;;7.38;;
51614;SDS011;37695;52.960;6.188;2023-05-07T13:03:20;8.70;;;7.75;;
51614;SDS011;37695;52.960;6.188;2023-05-07T13:08:22;7.82;;;6.97;;
51614;SDS011;37695;52.960;6.188;2023-05-07T13:10:49;9.93;;;7.82;;
51614;SDS011;37695;52.960;6.188;2023-05-07T13:13:14;9.90;;;8.15;;
51614;SDS011;37695;52.960;6.188;2023-05-07T13:15:40;8.30;;;7.40;;
51614;SDS011;37695;52.960;6.188;2023-05-07T13:18:05;10.38;;;8.32;;
51614;SDS011;37695;52.960;6.188;2023-05-07T13:20:31;10.27;;;8.98;;
51614;SDS011;37695;52.960;6.188;2023-05-07T13:22:57;10.00;;;8.18;;
51614;SDS011;37695;52.960;6.188;2023-05-07T13:25:22;8.90;;;8.00;;
51614;SDS011;37695;52.960;6.188;2023-05-07T13:27:48;9.15;;;8.20;;
51614;SDS011;37695;52.960;6.188;2023-05-07T13:30:13;9.70;;;8.60;;
51614;SDS011;37695;52.960;6.188;2023-05-07T13:32:39;11.13;;;8.27;;
51614;SDS011;37695;52.960;6.188;2023-05-07T13:35:05;10.63;;;8.20;;
51614;SDS011;37695;52.960;6.188;2023-05-07T13:37:31;8.88;;;7.68;;
51614;SDS011;37695;52.960;6.188;2023-05-07T13:39:56;9.02;;;7.78;;
51614;SDS011;37695;52.960;6.188;2023-05-07T13:42:22;9.13;;;8.05;;
51614;SDS011;37695;52.960;6.188;2023-05-07T13:44:47;9.70;;;8.20;;
51614;SDS011;37695;52.960;6.188;2023-05-07T13:47:13;9.73;;;8.50;;
51614;SDS011;37695;52.960;6.188;2023-05-07T13:49:38;10.05;;;8.43;;
51614;SDS011;37695;52.960;6.188;2023-05-07T13:52:04;8.48;;;7.40;;
51614;SDS011;37695;52.960;6.188;2023-05-07T13:54:29;9.10;;;7.25;;
51614;SDS011;37695;52.960;6.188;2023-05-07T13:56:55;9.50;;;7.45;;
51614;SDS011;37695;52.960;6.188;2023-05-07T13:59:20;7.82;;;6.60;;
51614;SDS011;37695;52.960;6.188;2023-05-07T14:01:46;8.82;;;7.13;;
51614;SDS011;37695;52.960;6.188;2023-05-07T14:04:12;8.10;;;7.00;;
51614;SDS011;37695;52.960;6.188;2023-05-07T14:06:37;8.48;;;6.90;;
51614;SDS011;37695;52.960;6.188;2023-05-07T14:09:04;8.43;;;7.43;;
51614;SDS011;37695;52.960;6.188;2023-05-07T14:11:29;9.07;;;7.10;;
51614;SDS011;37695;52.960;6.188;2023-05-07T14:13:55;8.88;;;7.40;;
51614;SDS011;37695;52.960;6.188;2023-05-07T14:16:21;7.57;;;6.72;;
51614;SDS011;37695;52.960;6.188;2023-05-07T14:18:47;9.07;;;7.68;;
51614;SDS011;37695;52.960;6.188;2023-05-07T14:21:12;8.10;;;6.63;;
51614;SDS011;37695;52.960;6.188;2023-05-07T14:23:38;9.65;;;6.95;;
51614;SDS011;37695;52.960;6.188;2023-05-07T14:26:04;8.55;;;6.90;;
51614;SDS011;37695;52.960;6.188;2023-05-07T14:28:30;8.35;;;6.32;;
51614;SDS011;37695;52.960;6.188;2023-05-07T14:30:56;8.18;;;6.68;;
51614;SDS011;37695;52.960;6.188;2023-05-07T14:33:21;7.35;;;6.15;;
51614;SDS011;37695;52.960;6.188;2023-05-07T14:35:47;8.20;;;6.45;;
51614;SDS011;37695;52.960;6.188;2023-05-07T14:38:14;7.35;;;6.53;;
51614;SDS011;37695;52.960;6.188;2023-05-07T14:40:40;8.48;;;6.53;;